createdAt,value
2018-12-13T00:00:58.814Z,82.84
2018-12-13T00:03:32.783Z,82.78
2018-12-13T00:06:05.955Z,82.64
2018-12-13T00:08:39.780Z,82.69
2018-12-13T00:11:10.488Z,82.96
2018-12-13T00:13:41.330Z,82.88
2018-12-13T00:16:11.938Z,83.06
2018-12-13T00:18:42.565Z,83.59
2018-12-13T00:21:15.767Z,83.00
2018-12-13T00:23:46.419Z,83.47
2018-12-13T00:26:17.076Z,83.99
2018-12-13T00:28:47.755Z,83.76
2018-12-13T00:31:19.678Z,83.27
2018-12-13T00:33:50.237Z,83.51
2018-12-13T00:36:20.863Z,83.01
2018-12-13T00:38:51.472Z,83.01
2018-12-13T00:41:22.171Z,83.46
2018-12-13T00:43:57.860Z,83.37
2018-12-13T00:46:32.186Z,83.74
2018-12-13T00:49:08.618Z,83.39
2018-12-13T00:51:44.210Z,83.12
2018-12-13T00:54:20.206Z,83.26
2018-12-13T00:56:54.826Z,83.40
2018-12-13T00:59:25.453Z,83.42
2018-12-13T01:01:57.518Z,83.46
2018-12-13T01:04:28.185Z,83.53
2018-12-13T01:07:00.173Z,83.88
2018-12-13T01:09:30.917Z,83.94
2018-12-13T01:12:01.684Z,84.49
2018-12-13T01:14:32.450Z,84.83
2018-12-13T01:17:08.709Z,85.60
2018-12-13T01:19:39.275Z,86.04
2018-12-13T01:22:09.902Z,86.89
2018-12-13T01:24:41.843Z,86.71
2018-12-13T01:27:12.495Z,86.40
2018-12-13T01:29:44.618Z,86.72
2018-12-13T01:32:19.041Z,86.44
2018-12-13T01:34:51.021Z,86.44
2018-12-13T01:37:28.348Z,86.45
2018-12-13T01:40:02.546Z,85.81
2018-12-13T01:42:36.382Z,85.94
2018-12-13T01:45:12.852Z,85.08
2018-12-13T01:47:44.993Z,84.61
2018-12-13T01:50:20.796Z,83.84
2018-12-13T01:52:53.168Z,83.94
2018-12-13T01:55:27.491Z,84.01
2018-12-13T01:58:01.577Z,84.12
2018-12-13T02:00:35.583Z,84.15
2018-12-13T02:03:08.127Z,83.77
2018-12-13T02:05:48.448Z,83.12
2018-12-13T02:08:24.707Z,82.79
2018-12-13T02:10:56.574Z,83.63
2018-12-13T02:13:27.322Z,84.20
2018-12-13T02:15:58.209Z,84.09
2018-12-13T02:18:29.817Z,84.44
2018-12-13T02:21:04.058Z,83.96
2018-12-13T02:23:38.524Z,84.40
2018-12-13T02:26:10.844Z,84.46
2018-12-13T02:28:45.030Z,84.70
2018-12-13T02:31:23.014Z,84.75
2018-12-13T02:34:00.799Z,84.70
2018-12-13T02:36:32.900Z,85.28
2018-12-13T02:39:03.949Z,84.74
2018-12-13T02:41:34.658Z,85.00
2018-12-13T02:44:06.545Z,84.87
2018-12-13T02:46:37.588Z,85.25
2018-12-13T02:49:11.051Z,85.42
2018-12-13T02:51:41.874Z,85.05
2018-12-13T02:54:13.414Z,85.36
2018-12-13T02:56:44.149Z,85.32
2018-12-13T02:59:18.631Z,84.97
2018-12-13T03:01:52.329Z,85.62
2018-12-13T03:04:28.592Z,85.94
2018-12-13T03:07:05.190Z,85.06
2018-12-13T03:09:35.757Z,83.68
2018-12-13T03:12:06.634Z,84.49
2018-12-13T03:14:37.638Z,84.58
2018-12-13T03:17:08.172Z,84.94
2018-12-13T03:19:38.779Z,85.14
2018-12-13T03:22:09.428Z,85.05
2018-12-13T03:24:40.396Z,84.80
2018-12-13T03:27:11.044Z,85.25
2018-12-13T03:29:44.285Z,85.10
2018-12-13T03:32:15.232Z,84.87
2018-12-13T03:34:46.440Z,85.10
2018-12-13T03:37:21.126Z,84.23
2018-12-13T03:39:55.731Z,83.99
2018-12-13T03:42:26.364Z,84.23
2018-12-13T03:45:00.500Z,83.83
2018-12-13T03:47:34.909Z,84.34
2018-12-13T03:50:10.796Z,83.93
2018-12-13T03:52:44.764Z,84.43
2018-12-13T03:55:18.730Z,84.55
2018-12-13T03:57:51.219Z,84.63
2018-12-13T04:00:27.667Z,84.81
2018-12-13T04:03:04.540Z,85.64
2018-12-13T04:05:38.279Z,84.81
2018-12-13T04:08:12.277Z,84.96
2018-12-13T04:10:48.767Z,84.14
2018-12-13T04:13:22.782Z,84.32
2018-12-13T04:15:59.068Z,84.38
2018-12-13T04:18:30.094Z,83.49
2018-12-13T04:21:02.736Z,82.98
2018-12-13T04:23:34.056Z,83.06
2018-12-13T04:26:05.324Z,83.02
2018-12-13T04:28:36.140Z,83.78
2018-12-13T04:31:08.548Z,83.36
2018-12-13T04:33:39.826Z,83.70
2018-12-13T04:36:11.145Z,83.57
2018-12-13T04:38:42.961Z,82.76
2018-12-13T04:41:14.036Z,83.24
2018-12-13T04:43:45.182Z,82.75
2018-12-13T04:46:17.056Z,82.43
2018-12-13T04:48:48.091Z,81.80
2018-12-13T04:51:24.959Z,82.51
2018-12-13T04:53:57.295Z,82.74
2018-12-13T04:56:29.803Z,82.84
2018-12-13T04:59:04.528Z,82.21
2018-12-13T05:01:36.228Z,82.68
2018-12-13T05:04:08.591Z,81.99
2018-12-13T05:06:39.461Z,82.08
2018-12-13T05:09:10.501Z,81.96
2018-12-13T05:11:44.690Z,82.40
2018-12-13T05:14:15.559Z,82.08
2018-12-13T05:16:46.402Z,81.65
2018-12-13T05:19:17.333Z,81.37
2018-12-13T05:21:48.496Z,81.28
2018-12-13T05:24:19.375Z,81.53
2018-12-13T05:26:50.226Z,81.39
2018-12-13T05:29:20.986Z,80.66
2018-12-13T05:31:54.336Z,80.53
2018-12-13T05:34:25.459Z,81.20
2018-12-13T05:36:56.356Z,81.64
2018-12-13T05:39:27.521Z,81.79
2018-12-13T05:41:58.432Z,80.21
2018-12-13T05:44:29.326Z,80.50
2018-12-13T05:47:01.324Z,81.21
2018-12-13T05:49:32.173Z,80.33
2018-12-13T05:52:04.204Z,80.33
2018-12-13T05:54:37.486Z,80.19
2018-12-13T05:57:10.318Z,80.11
2018-12-13T05:59:41.289Z,80.11
2018-12-13T06:02:17.110Z,80.72
2018-12-13T06:04:48.515Z,80.75
2018-12-13T06:07:19.524Z,81.25
2018-12-13T06:09:50.855Z,81.72
2018-12-13T06:12:21.857Z,81.33
2018-12-13T06:14:54.923Z,81.50
2018-12-13T06:17:31.618Z,81.54
2018-12-13T06:20:06.518Z,81.88
2018-12-13T06:22:38.695Z,81.17
2018-12-13T06:25:12.719Z,81.44
2018-12-13T06:27:46.932Z,81.47
2018-12-13T06:30:33.961Z,81.07
2018-12-13T06:33:11.433Z,81.13
2018-12-13T06:35:43.002Z,81.55
2018-12-13T06:38:14.074Z,81.66
2018-12-13T06:40:44.966Z,81.92
2018-12-13T06:43:15.861Z,81.57
2018-12-13T06:45:46.822Z,81.75
2018-12-13T06:48:18.188Z,81.65
2018-12-13T06:50:53.432Z,81.21
2018-12-13T06:53:28.158Z,80.83
2018-12-13T06:56:02.665Z,81.15
2018-12-13T06:58:36.698Z,80.91
2018-12-13T07:01:08.024Z,81.02
2018-12-13T07:03:44.875Z,80.72
2018-12-13T07:06:19.647Z,80.18
2018-12-13T07:08:53.897Z,79.92
2018-12-13T07:11:25.731Z,79.32
2018-12-13T07:14:00.035Z,79.22
2018-12-13T07:16:34.964Z,78.92
2018-12-13T07:19:06.361Z,78.02
2018-12-13T07:21:37.224Z,78.60
2018-12-13T07:24:11.672Z,79.26
2018-12-13T07:26:46.369Z,77.63
2018-12-13T07:29:20.223Z,77.13
2018-12-13T07:31:56.383Z,78.00
2018-12-13T07:34:30.554Z,78.23
2018-12-13T07:37:05.141Z,78.70
2018-12-13T07:39:38.957Z,79.74
2018-12-13T07:42:10.334Z,78.45
2018-12-13T07:44:41.318Z,78.79
2018-12-13T07:47:12.386Z,78.94
2018-12-13T07:49:43.396Z,79.37
2018-12-13T07:52:18.955Z,78.30
2018-12-13T07:54:51.374Z,78.26
2018-12-13T07:57:22.274Z,77.80
2018-12-13T07:59:53.421Z,77.88
2018-12-13T08:02:25.133Z,77.77
2018-12-13T08:04:56.108Z,76.89
2018-12-13T08:07:27.059Z,77.05
2018-12-13T08:09:59.331Z,76.89
2018-12-13T08:12:30.290Z,76.19
2018-12-13T08:15:05.389Z,76.23
2018-12-13T08:17:39.787Z,76.51
2018-12-13T08:20:16.112Z,75.37
2018-12-13T08:22:49.853Z,75.70
2018-12-13T08:25:26.277Z,76.26
2018-12-13T08:28:02.723Z,75.29
2018-12-13T08:30:35.418Z,75.11
2018-12-13T08:33:07.669Z,75.67
2018-12-13T08:35:44.299Z,75.10
2018-12-13T08:38:16.262Z,75.07
2018-12-13T08:40:48.172Z,75.31
2018-12-13T08:43:19.233Z,74.85
2018-12-13T08:45:50.126Z,74.72
2018-12-13T08:48:20.949Z,75.07
2018-12-13T08:50:54.280Z,74.72
2018-12-13T08:53:25.311Z,74.74
2018-12-13T08:55:56.018Z,75.53
2018-12-13T08:58:27.091Z,75.97
2018-12-13T09:00:57.779Z,74.90
2018-12-13T09:03:28.746Z,75.08
2018-12-13T09:05:59.845Z,74.86
2018-12-13T09:08:33.584Z,75.01
2018-12-13T09:11:03.602Z,74.79
2018-12-13T09:13:34.463Z,74.06
2018-12-13T09:16:05.238Z,74.41
2018-12-13T09:18:36.517Z,73.91
2018-12-13T09:21:07.274Z,74.06
2018-12-13T09:23:40.760Z,73.57
2018-12-13T09:26:16.745Z,74.14
2018-12-13T09:28:51.574Z,72.87
2018-12-13T09:31:28.090Z,73.08
2018-12-13T09:34:02.457Z,72.81
2018-12-13T09:36:33.947Z,73.09
2018-12-13T09:39:07.182Z,73.08
2018-12-13T09:41:43.581Z,73.11
2018-12-13T09:44:19.976Z,73.24
2018-12-13T09:46:54.091Z,72.71
2018-12-13T09:49:28.963Z,72.42
2018-12-13T09:52:03.709Z,72.39
2018-12-13T09:54:39.604Z,72.81
2018-12-13T09:57:10.816Z,73.35
2018-12-13T09:59:41.534Z,72.92
2018-12-13T10:02:12.292Z,72.53
2018-12-13T10:04:43.240Z,72.93
2018-12-13T10:07:13.950Z,72.66
2018-12-13T10:09:44.834Z,71.89
2018-12-13T10:12:16.729Z,71.63
2018-12-13T10:14:48.106Z,71.99
2018-12-13T10:17:20.414Z,72.13
2018-12-13T10:19:51.151Z,71.76
2018-12-13T10:22:26.138Z,71.44
2018-12-13T10:25:00.253Z,71.94
2018-12-13T10:27:39.387Z,71.25
2018-12-13T10:30:10.243Z,71.09
2018-12-13T10:32:41.036Z,71.16
2018-12-13T10:35:12.168Z,70.51
2018-12-13T10:37:43.049Z,71.29
2018-12-13T10:40:14.243Z,71.52
2018-12-13T10:42:45.296Z,71.33
2018-12-13T10:45:16.362Z,71.95
2018-12-13T10:47:48.317Z,71.43
2018-12-13T10:50:19.207Z,71.78
2018-12-13T10:52:50.207Z,71.18
2018-12-13T10:55:20.806Z,70.79
2018-12-13T10:57:52.584Z,70.95
2018-12-13T11:00:27.999Z,70.60
2018-12-13T11:03:25.621Z,70.77
2018-12-13T11:05:58.218Z,71.22
2018-12-13T11:08:30.474Z,72.56
2018-12-13T11:11:01.257Z,72.88
2018-12-13T11:13:32.059Z,73.51
2018-12-13T11:16:03.715Z,73.83
2018-12-13T11:18:34.382Z,74.33
2018-12-13T11:21:06.246Z,72.37
2018-12-13T11:23:37.839Z,72.58
2018-12-13T11:26:08.545Z,72.33
2018-12-13T11:28:50.622Z,72.65
2018-12-13T11:31:21.237Z,72.69
2018-12-13T11:33:53.529Z,72.62
2018-12-13T11:36:24.240Z,72.77
2018-12-13T11:38:55.719Z,73.51
2018-12-13T11:41:26.967Z,73.15
2018-12-13T11:44:02.326Z,73.10
2018-12-13T11:46:33.483Z,73.01
2018-12-13T11:49:12.309Z,73.30
2018-12-13T11:51:43.646Z,73.41
2018-12-13T11:54:49.929Z,73.72
2018-12-13T11:57:20.998Z,74.37
2018-12-13T11:59:51.765Z,74.89
2018-12-13T12:02:24.118Z,74.93
2018-12-13T12:04:55.065Z,75.09
2018-12-13T12:07:27.411Z,75.32
2018-12-13T12:09:58.448Z,76.67
2018-12-13T12:12:29.190Z,77.04
2018-12-13T12:14:59.931Z,77.50
2018-12-13T12:17:30.791Z,78.52
2018-12-13T12:20:01.496Z,78.99
2018-12-13T12:22:32.216Z,79.32
2018-12-13T12:25:04.179Z,79.41
2018-12-13T12:27:37.922Z,79.77
2018-12-13T12:30:12.235Z,79.46
2018-12-13T12:32:48.877Z,78.35
2018-12-13T12:35:25.216Z,78.13
2018-12-13T12:38:00.156Z,78.24
2018-12-13T12:40:37.087Z,78.32
2018-12-13T12:43:09.743Z,78.11
2018-12-13T12:45:44.740Z,78.26
2018-12-13T12:48:19.760Z,77.63
2018-12-13T12:50:53.710Z,77.93
2018-12-13T12:53:27.843Z,78.19
2018-12-13T12:56:04.807Z,78.71
2018-12-13T12:58:40.473Z,78.04
2018-12-13T13:01:16.523Z,78.12
2018-12-13T13:03:52.569Z,77.10
2018-12-13T13:06:32.976Z,77.62
2018-12-13T13:09:14.333Z,77.89
2018-12-13T13:11:50.905Z,77.02
2018-12-13T13:14:27.048Z,78.26
2018-12-13T13:17:01.719Z,77.51
2018-12-13T13:19:43.586Z,77.29
2018-12-13T13:22:14.728Z,76.74
2018-12-13T13:24:45.515Z,77.51
2018-12-13T13:27:16.377Z,77.60
2018-12-13T13:29:49.172Z,77.36
2018-12-13T13:32:20.609Z,77.34
2018-12-13T13:34:55.083Z,77.63
2018-12-13T13:37:25.916Z,76.92
2018-12-13T13:39:56.792Z,76.30
2018-12-13T13:42:28.075Z,75.91
2018-12-13T13:45:02.482Z,75.79
2018-12-13T13:47:33.120Z,75.60
2018-12-13T13:50:04.055Z,75.84
2018-12-13T13:52:35.080Z,76.18
2018-12-13T13:55:09.317Z,76.20
2018-12-13T13:57:40.000Z,76.93
2018-12-13T14:00:11.268Z,77.09
2018-12-13T14:02:42.513Z,77.56
2018-12-13T14:05:13.476Z,77.89
2018-12-13T14:07:44.237Z,77.96
2018-12-13T14:10:16.071Z,78.20
2018-12-13T14:12:47.123Z,78.46
2018-12-13T14:15:18.288Z,78.53
2018-12-13T14:17:49.619Z,79.09
2018-12-13T14:20:23.669Z,79.29
2018-12-13T14:22:55.845Z,79.35
2018-12-13T14:25:32.562Z,79.38
2018-12-13T14:28:06.953Z,79.65
2018-12-13T14:30:41.429Z,79.59
2018-12-13T14:33:17.035Z,79.69
2018-12-13T14:35:48.200Z,79.15
2018-12-13T14:38:22.614Z,79.46
2018-12-13T14:40:53.869Z,79.31
2018-12-13T14:43:24.923Z,78.83
2018-12-13T14:45:55.760Z,78.68
2018-12-13T14:48:26.654Z,78.86
2018-12-13T14:50:58.335Z,78.62
2018-12-13T14:53:29.368Z,79.24
2018-12-13T14:56:00.540Z,78.05
2018-12-13T14:58:34.452Z,78.72
2018-12-13T15:01:10.110Z,77.69
2018-12-13T15:03:50.231Z,78.18
2018-12-13T15:06:25.337Z,77.66
2018-12-13T15:08:59.212Z,77.63
2018-12-13T15:11:45.594Z,76.61
2018-12-13T15:14:22.879Z,76.40
2018-12-13T15:16:59.622Z,76.70
2018-12-13T15:19:34.134Z,76.49
2018-12-13T15:22:09.100Z,75.72
2018-12-13T15:24:43.069Z,76.42
2018-12-13T15:27:17.706Z,76.68
2018-12-13T15:29:52.262Z,76.83
2018-12-13T15:32:26.414Z,76.49
2018-12-13T15:35:00.715Z,76.02
2018-12-13T15:37:37.101Z,75.96
2018-12-13T15:40:11.449Z,75.94
2018-12-13T15:42:44.846Z,76.26
2018-12-13T15:45:19.895Z,76.03
2018-12-13T15:47:54.038Z,75.11
2018-12-13T15:50:27.910Z,75.24
2018-12-13T15:55:33.935Z,75.26
2018-12-13T15:58:10.249Z,75.24
2018-12-13T16:00:42.818Z,75.46
2018-12-13T16:03:18.795Z,75.01
2018-12-13T16:05:54.756Z,74.72
2018-12-13T16:08:26.936Z,74.77
2018-12-13T16:11:01.013Z,75.08
2018-12-13T16:13:37.056Z,74.64
2018-12-13T16:16:12.936Z,74.28
2018-12-13T16:18:47.173Z,74.77
2018-12-13T16:21:20.043Z,74.57
2018-12-13T16:23:51.297Z,74.46
2018-12-13T16:26:22.038Z,74.37
2018-12-13T16:28:52.962Z,74.50
2018-12-13T16:31:25.241Z,74.14
2018-12-13T16:34:00.152Z,74.44
2018-12-13T16:36:34.076Z,74.36
2018-12-13T16:39:08.170Z,74.42
2018-12-13T16:41:52.039Z,74.73
2018-12-13T16:44:28.388Z,74.06
2018-12-13T16:47:05.300Z,74.57
2018-12-13T16:49:38.693Z,73.73
2018-12-13T16:52:13.730Z,74.16
2018-12-13T16:54:48.408Z,73.32
2018-12-13T16:57:22.496Z,72.70
2018-12-13T16:59:57.574Z,72.90
2018-12-13T17:02:31.495Z,72.44
2018-12-13T17:05:07.697Z,72.95
2018-12-13T17:07:41.812Z,73.09
2018-12-13T17:10:17.540Z,72.86
2018-12-13T17:12:51.368Z,73.13
2018-12-13T17:15:25.817Z,72.85
2018-12-13T17:17:59.865Z,72.66
2018-12-13T17:20:33.877Z,72.76
2018-12-13T17:23:06.678Z,72.26
2018-12-13T17:25:37.830Z,72.67
2018-12-13T17:28:08.759Z,73.11
2018-12-13T17:30:39.583Z,72.64
2018-12-13T17:33:13.773Z,72.94
2018-12-13T17:35:47.657Z,73.13
2018-12-13T17:38:22.623Z,72.80
2018-12-13T17:40:55.517Z,72.87
2018-12-13T17:43:31.441Z,72.57
2018-12-13T17:46:07.346Z,72.93
2018-12-13T17:48:41.625Z,72.59
2018-12-13T17:51:15.577Z,72.79
2018-12-13T17:53:51.030Z,73.02
2018-12-13T17:56:25.142Z,73.00
2018-12-13T17:59:01.358Z,72.97
2018-12-13T18:01:35.798Z,72.98
2018-12-13T18:04:11.799Z,72.67
2018-12-13T18:06:43.794Z,73.42
2018-12-13T18:09:18.699Z,72.97
2018-12-13T18:11:50.769Z,73.13
2018-12-13T18:14:24.593Z,72.42
2018-12-13T18:16:59.323Z,72.72
2018-12-13T18:19:31.254Z,73.21
2018-12-13T18:22:08.034Z,72.81
2018-12-13T18:24:45.156Z,72.30
2018-12-13T18:27:17.587Z,71.82
2018-12-13T18:29:54.331Z,71.76
2018-12-13T18:32:30.874Z,72.71
2018-12-13T18:35:05.876Z,72.45
2018-12-13T18:37:40.508Z,72.04
2018-12-13T18:40:15.659Z,71.24
2018-12-13T18:42:49.572Z,71.68
2018-12-13T18:45:24.578Z,72.01
2018-12-13T18:47:56.123Z,71.94
2018-12-13T18:50:28.425Z,72.08
2018-12-13T18:53:02.528Z,72.70
2018-12-13T18:55:36.513Z,71.95
2018-12-13T18:58:07.764Z,71.94
2018-12-13T19:00:38.606Z,71.69
2018-12-13T19:03:09.863Z,71.60
2018-12-13T19:05:40.736Z,71.51
2018-12-13T19:08:11.844Z,70.97
2018-12-13T19:10:42.939Z,71.31
2018-12-13T19:13:13.922Z,71.54
2018-12-13T19:15:44.757Z,71.59
2018-12-13T19:18:15.595Z,71.57
2018-12-13T19:20:47.953Z,71.27
2018-12-13T19:23:18.783Z,71.85
2018-12-13T19:25:49.639Z,71.84
2018-12-13T19:28:20.462Z,70.73
2018-12-13T19:30:52.634Z,70.65
2018-12-13T19:33:23.881Z,71.50
2018-12-13T19:35:54.915Z,71.26
2018-12-13T19:38:25.690Z,71.72
2018-12-13T19:40:56.949Z,70.38
2018-12-13T19:43:27.758Z,70.91
2018-12-13T19:45:58.765Z,70.06
2018-12-13T19:48:29.746Z,70.61
2018-12-13T19:51:01.285Z,70.63
2018-12-13T19:53:32.323Z,70.20
2018-12-13T19:56:03.049Z,69.99
2018-12-13T19:58:35.277Z,70.23
2018-12-13T20:01:06.083Z,69.71
2018-12-13T20:03:37.084Z,69.64
2018-12-13T20:06:15.409Z,69.78
2018-12-13T20:08:46.343Z,69.81
2018-12-13T20:11:17.376Z,69.31
2018-12-13T20:13:48.164Z,69.89
2018-12-13T20:16:18.867Z,69.14
2018-12-13T20:18:51.000Z,69.63
2018-12-13T20:21:21.894Z,68.68
2018-12-13T20:23:52.727Z,69.00
2018-12-13T20:26:23.752Z,69.50
2018-12-13T20:28:55.636Z,69.62
2018-12-13T20:31:30.553Z,69.23
2018-12-13T20:34:05.062Z,68.58
2018-12-13T20:36:41.287Z,69.47
2018-12-13T20:39:15.415Z,70.76
2018-12-13T20:41:50.592Z,70.63
2018-12-13T20:44:27.332Z,70.29
2018-12-13T20:47:02.329Z,70.47
2018-12-13T20:49:36.576Z,70.80
2018-12-13T20:52:08.073Z,70.94
2018-12-13T20:54:40.091Z,70.98
2018-12-13T20:57:11.639Z,71.45
2018-12-13T20:59:42.509Z,71.53
2018-12-13T21:02:13.194Z,70.94
2018-12-13T21:04:43.966Z,70.64
2018-12-13T21:07:35.780Z,70.59
2018-12-13T21:10:09.781Z,71.79
2018-12-13T21:12:40.774Z,71.44
2018-12-13T21:15:15.061Z,70.65
2018-12-13T21:17:56.282Z,70.34
2018-12-13T21:20:30.229Z,70.60
2018-12-13T21:23:07.027Z,70.39
2018-12-13T21:25:44.379Z,70.35
2018-12-13T21:28:18.757Z,69.93
2018-12-13T21:30:52.321Z,69.55
2018-12-13T21:33:27.684Z,70.14
2018-12-13T21:36:04.722Z,69.43
2018-12-13T21:38:39.039Z,69.23
2018-12-13T21:41:16.340Z,70.18
2018-12-13T21:43:53.349Z,69.27
2018-12-13T21:46:26.206Z,69.23
2018-12-13T21:49:00.328Z,69.22
2018-12-13T21:51:34.803Z,69.69
2018-12-13T21:54:07.576Z,69.75
2018-12-13T21:56:45.747Z,69.98
2018-12-13T21:59:20.592Z,69.45
2018-12-13T22:01:53.187Z,69.24
2018-12-13T22:04:29.471Z,69.79
2018-12-13T22:07:06.183Z,69.69
2018-12-13T22:09:39.035Z,69.53
2018-12-13T22:12:14.381Z,70.17
2018-12-13T22:14:52.236Z,71.06
2018-12-13T22:17:27.133Z,70.24
2018-12-13T22:20:01.643Z,70.27
2018-12-13T22:22:38.099Z,70.43
2018-12-13T22:25:19.593Z,70.43
2018-12-13T22:28:03.573Z,70.82
2018-12-13T22:30:34.913Z,70.79
2018-12-13T22:33:07.390Z,70.85
2018-12-13T22:35:39.292Z,70.46
2018-12-13T22:38:16.821Z,69.97
2018-12-13T22:40:53.517Z,70.45
2018-12-13T22:43:28.355Z,70.74
2018-12-13T22:46:04.699Z,70.65
2018-12-13T22:48:37.596Z,70.47
2018-12-13T22:51:14.503Z,70.09
2018-12-13T22:54:07.585Z,70.82
2018-12-13T22:56:57.118Z,70.58
2018-12-13T22:59:40.617Z,70.70
2018-12-13T23:02:31.261Z,70.83
2018-12-13T23:08:17.387Z,71.13
2018-12-13T23:13:49.159Z,71.31
2018-12-13T23:16:22.823Z,70.74
2018-12-13T23:18:55.671Z,71.07
2018-12-13T23:21:28.340Z,71.00
2018-12-13T23:24:02.940Z,71.14
2018-12-13T23:26:36.948Z,71.39
2018-12-13T23:29:11.682Z,71.17
2018-12-13T23:31:44.259Z,71.56
2018-12-13T23:34:18.712Z,71.06
2018-12-13T23:36:54.128Z,71.25
2018-12-13T23:39:29.073Z,71.38
2018-12-13T23:42:03.104Z,71.32
2018-12-13T23:44:37.328Z,70.85
2018-12-13T23:47:14.748Z,70.99
2018-12-13T23:49:49.300Z,71.12
2018-12-13T23:52:30.377Z,71.57
2018-12-13T23:55:03.527Z,71.10
2018-12-13T23:57:39.873Z,71.16
